Time;durP1;ratioP1;P1;durP2;ratioP2;P2;SDS_P1;SDS_P2;PMS_P1;PMS_P2;Temp;Humidity;BMP_temperature;BMP_pressure;BME280_temperature;BME280_humidity;BME280_pressure;Samples;Min_cycle;Max_cycle;Signal;HPM_P1;HPM_P2
2023/01/24 00:00:40;;;;;;;40.08;16.67;;;;;;;1.19;68.43;103831.47;4973068;28;20109;-62
2023/01/24 00:03:11;;;;;;;47.42;17.63;;;;;;;1.23;68.47;103829.00;4968046;28;20242;-61
2023/01/24 00:05:41;;;;;;;43.05;17.27;;;;;;;1.24;68.51;103820.38;4964054;28;20046;-61
2023/01/24 00:08:07;;;;;;;43.78;17.20;;;;;;;1.28;68.03;103832.63;4970689;28;20026;-62
2023/01/24 00:10:32;;;;;;;46.60;17.83;;;;;;;1.31;68.30;103835.28;4970657;28;20023;-61
2023/01/24 00:12:58;;;;;;;47.38;18.10;;;;;;;1.30;68.03;103824.03;4964332;28;20523;-58
2023/01/24 00:15:23;;;;;;;43.60;17.05;;;;;;;1.31;67.86;103831.00;4966329;28;20546;-62
2023/01/24 00:17:49;;;;;;;47.72;17.25;;;;;;;1.33;68.03;103823.25;4965197;28;20027;-60
2023/01/24 00:20:15;;;;;;;49.13;17.30;;;;;;;1.37;68.28;103825.13;4962571;28;20039;-61
2023/01/24 00:22:40;;;;;;;40.47;15.07;;;;;;;1.37;67.99;103817.31;4970985;28;20080;-59
2023/01/24 00:25:06;;;;;;;43.85;16.90;;;;;;;1.34;68.04;103812.03;4970301;28;20050;-62
2023/01/24 00:27:34;;;;;;;47.78;17.42;;;;;;;1.34;67.93;103827.59;4972293;28;20033;-62
2023/01/24 00:29:59;;;;;;;53.40;19.40;;;;;;;1.31;68.17;103822.31;4971407;28;20038;-60
2023/01/24 00:32:25;;;;;;;47.30;17.15;;;;;;;1.34;68.41;103825.00;4964145;28;20375;-61
2023/01/24 00:34:50;;;;;;;46.38;17.98;;;;;;;1.33;67.92;103834.53;4968534;28;20039;-60
2023/01/24 00:37:16;;;;;;;37.47;15.60;;;;;;;1.35;68.03;103831.97;4968966;28;20118;-63
2023/01/24 00:39:41;;;;;;;43.38;17.67;;;;;;;1.30;67.85;103826.63;4967626;28;20045;-62
2023/01/24 00:42:07;;;;;;;44.03;16.38;;;;;;;1.28;68.03;103823.13;4964606;28;20515;-59
2023/01/24 00:44:33;;;;;;;35.55;16.42;;;;;;;1.28;68.37;103830.91;4966270;28;20026;-60
2023/01/24 00:46:59;;;;;;;47.75;18.15;;;;;;;1.26;68.03;103835.16;4968712;28;20078;-61
2023/01/24 00:49:24;;;;;;;47.17;17.10;;;;;;;1.26;68.64;103839.47;4964564;28;20512;-61
2023/01/24 00:51:50;;;;;;;47.30;16.67;;;;;;;1.24;68.59;103835.94;4967542;28;20426;-62
2023/01/24 00:54:15;;;;;;;48.72;17.90;;;;;;;1.22;68.70;103838.47;4966024;28;20039;-59
2023/01/24 00:56:40;;;;;;;24.70;9.90;;;;;;;1.23;68.72;103839.38;4966260;28;20030;-59
2023/01/24 00:59:06;;;;;;;46.92;17.38;;;;;;;1.24;68.63;103838.53;4967357;28;20038;-60
2023/01/24 01:01:31;;;;;;;56.53;19.60;;;;;;;1.24;68.70;103842.00;4970789;28;20027;-60
2023/01/24 01:03:57;;;;;;;51.38;17.98;;;;;;;1.24;68.61;103842.00;4967122;28;20436;-62
2023/01/24 01:06:24;;;;;;;41.22;17.80;;;;;;;1.27;68.86;103841.25;4968522;28;20018;-60
2023/01/24 01:08:50;;;;;;;49.05;18.73;;;;;;;1.29;68.60;103835.25;4965091;28;20077;-63
2023/01/24 01:11:15;;;;;;;50.97;16.90;;;;;;;1.28;68.49;103835.22;4963698;28;20121;-62
2023/01/24 01:13:41;;;;;;;53.17;18.88;;;;;;;1.26;68.45;103836.88;4962136;28;20109;-60
2023/01/24 01:16:11;;;;;;;44.03;17.13;;;;;;;1.22;68.38;103833.28;4965939;28;20110;-62
2023/01/24 01:18:37;;;;;;;31.73;12.95;;;;;;;1.17;68.30;103840.06;4956721;28;20030;-62
2023/01/24 01:21:04;;;;;;;46.17;18.48;;;;;;;1.19;68.57;103831.47;4961885;28;20037;-60
2023/01/24 01:23:29;;;;;;;47.00;17.75;;;;;;;1.18;68.53;103840.09;4966406;28;20384;-58
2023/01/24 01:26:04;;;;;;;55.97;19.08;;;;;;;1.23;68.51;103844.56;4964379;28;20038;-61
2023/01/24 01:28:30;;;;;;;48.30;17.70;;;;;;;1.23;68.59;103848.03;4961710;28;20601;-62
2023/01/24 01:30:55;;;;;;;52.33;18.05;;;;;;;1.25;68.69;103842.91;4964546;28;20077;-58
2023/01/24 01:33:22;;;;;;;51.53;18.52;;;;;;;1.22;68.30;103841.06;4961125;28;20065;-62
2023/01/24 01:35:48;;;;;;;50.30;18.30;;;;;;;1.21;68.29;103842.78;4963788;28;20030;-61
2023/01/24 01:38:14;;;;;;;31.02;11.90;;;;;;;1.19;68.27;103846.19;4964202;28;20106;-60
2023/01/24 01:40:40;;;;;;;49.63;18.40;;;;;;;1.18;68.60;103837.50;4961747;28;20036;-60
2023/01/24 01:43:18;;;;;;;51.35;19.70;;;;;;;1.17;68.68;103837.47;4968514;28;20054;-62
2023/01/24 01:45:46;;;;;;;45.45;18.58;;;;;;;1.23;68.22;103841.97;4967112;28;20047;-63
2023/01/24 01:48:24;;;;;;;45.75;18.70;;;;;;;1.23;68.36;103844.56;4964789;28;20054;-62
2023/01/24 01:50:59;;;;;;;48.17;18.73;;;;;;;1.21;68.39;103841.94;4965134;28;20022;-61
2023/01/24 01:53:30;;;;;;;45.67;17.20;;;;;;;1.18;68.50;103847.88;4970535;28;20030;-57
2023/01/24 01:56:03;;;;;;;41.05;18.75;;;;;;;1.16;68.55;103849.53;4968621;28;20035;-61
2023/01/24 01:58:28;;;;;;;42.75;18.30;;;;;;;1.16;68.58;103849.53;4970055;28;20022;-62
2023/01/24 02:00:54;;;;;;;46.65;17.05;;;;;;;1.14;68.36;103842.56;4965701;28;20046;-63
2023/01/24 02:03:38;;;;;;;44.78;17.77;;;;;;;1.15;68.23;103840.00;4966138;28;20385;-61
2023/01/24 02:06:18;;;;;;;38.22;17.33;;;;;;;1.17;68.14;103846.13;4964125;28;20038;-63
2023/01/24 02:08:44;;;;;;;43.50;16.92;;;;;;;1.21;68.31;103853.19;4969378;28;20030;-61
2023/01/24 02:16:02;;;;;;;36.05;16.13;;;;;;;1.16;68.19;103849.53;4958495;28;20528;-59
2023/01/24 02:16:43;;;;;;;28.70;14.65;;;;;;;1.14;67.97;103846.00;4960071;28;20118;-59
2023/01/24 02:19:17;;;;;;;32.88;14.05;;;;;;;1.12;68.24;103842.53;4966711;28;20051;-60
2023/01/24 02:21:44;;;;;;;32.55;14.90;;;;;;;1.08;68.33;103844.94;4967667;28;20025;-61
2023/01/24 02:24:24;;;;;;;29.77;15.70;;;;;;;1.03;68.33;103839.63;4969601;28;20063;-61
2023/01/24 02:26:50;;;;;;;26.05;14.02;;;;;;;1.01;68.20;103843.88;4969772;28;20056;-60
2023/01/24 02:29:16;;;;;;;30.40;15.43;;;;;;;1.01;67.98;103833.50;4965695;28;20026;-62
2023/01/24 02:31:56;;;;;;;31.73;17.73;;;;;;;0.99;68.17;103829.97;4961710;28;20023;-58
2023/01/24 02:34:22;;;;;;;25.73;14.90;;;;;;;1.01;68.40;103833.50;4956401;28;20142;-60
2023/01/24 02:36:55;;;;;;;32.65;15.23;;;;;;;1.04;67.98;103841.38;4967661;28;20077;-61
2023/01/24 02:39:32;;;;;;;29.90;14.40;;;;;;;1.06;68.34;103834.53;4962325;28;20454;-61
2023/01/24 02:42:11;;;;;;;26.42;14.80;;;;;;;1.04;68.42;103820.63;4964202;28;20050;-60
2023/01/24 02:44:51;;;;;;;27.95;14.35;;;;;;;1.07;68.11;103825.91;4963749;28;20037;-61
2023/01/24 02:47:16;;;;;;;24.13;13.85;;;;;;;1.10;68.00;103827.72;4968069;28;20394;-59
2023/01/24 02:49:42;;;;;;;26.52;14.63;;;;;;;1.10;68.24;103828.63;4969371;28;20495;-59
2023/01/24 02:54:52;;;;;;;23.83;12.10;;;;;;;1.13;68.37;103833.00;4968895;28;20057;-58
2023/01/24 03:00:05;;;;;;;25.67;14.63;;;;;;;1.17;68.15;103830.56;4964835;28;20135;-61
2023/01/24 03:02:30;;;;;;;30.63;14.15;;;;;;;1.15;68.18;103828.75;4966643;28;20117;-62
2023/01/24 03:04:55;;;;;;;26.13;13.32;;;;;;;1.11;68.28;103827.78;4967291;28;20479;-60
2023/01/24 03:07:21;;;;;;;25.40;12.77;;;;;;;1.12;68.45;103832.16;4968508;28;20026;-60
2023/01/24 03:09:46;;;;;;;24.90;14.05;;;;;;;1.13;68.05;103828.72;4969376;28;20039;-59
2023/01/24 03:36:53;;;;;;;26.52;14.00;;;;;;;1.15;68.32;103821.84;4963142;28;20102;-59
2023/01/24 03:42:03;;;;;;;26.33;13.75;;;;;;;1.18;68.38;103821.94;4965347;28;20041;-58
2023/01/24 03:44:29;;;;;;;26.33;14.05;;;;;;;1.21;68.01;103822.03;4959933;28;20031;-61
2023/01/24 03:46:54;;;;;;;27.63;13.73;;;;;;;1.23;68.26;103818.63;4960736;28;20045;-62
2023/01/24 03:54:48;;;;;;;24.17;13.43;;;;;;;1.19;68.19;103826.31;4970171;28;20130;-61
2023/01/24 03:57:13;;;;;;;28.52;13.60;;;;;;;1.20;68.17;103820.28;4972595;28;20386;-59
2023/01/24 03:59:38;;;;;;;31.65;16.20;;;;;;;1.18;68.02;103821.94;4965412;28;20452;-58
2023/01/24 04:02:04;;;;;;;30.83;15.93;;;;;;;1.15;67.85;103832.22;4971778;28;20035;-58
2023/01/24 04:05:12;;;;;;;41.05;15.43;;;;;;;1.15;67.89;103827.03;4969068;28;20034;-60
2023/01/24 04:07:15;;;;;;;27.52;14.43;;;;;;;1.11;68.14;103826.88;4968887;28;20062;-59
2023/01/24 04:09:40;;;;;;;23.95;13.77;;;;;;;1.08;68.04;103830.28;4967388;28;20062;-58
2023/01/24 04:12:06;;;;;;;24.02;13.93;;;;;;;1.07;68.03;103825.91;4961396;28;20054;-58
2023/01/24 04:14:31;;;;;;;24.27;12.13;;;;;;;1.02;67.79;103830.06;4964541;28;20053;-62
2023/01/24 04:16:56;;;;;;;23.95;13.45;;;;;;;0.96;67.85;103812.59;4970467;28;20031;-62
2023/01/24 04:19:22;;;;;;;28.83;13.60;;;;;;;0.94;68.02;103831.56;4968835;28;20067;-59
2023/01/24 04:21:47;;;;;;;46.47;23.15;;;;;;;0.99;67.81;103828.28;4971459;28;20110;-57
2023/01/24 04:24:13;;;;;;;33.95;16.92;;;;;;;1.00;67.58;103823.94;4969993;28;20043;-60
2023/01/24 04:26:38;;;;;;;21.63;11.40;;;;;;;0.93;67.96;103828.06;4966669;28;20039;-59
2023/01/24 04:29:04;;;;;;;29.13;14.25;;;;;;;0.93;67.63;103822.00;4969556;28;20469;-59
2023/01/24 04:31:29;;;;;;;26.52;13.88;;;;;;;0.93;67.92;103827.19;4962947;28;20555;-59
2023/01/24 04:33:54;;;;;;;25.88;13.90;;;;;;;0.90;68.32;103818.47;4979567;28;20452;-59
2023/01/24 04:36:20;;;;;;;27.17;15.57;;;;;;;0.89;68.23;103824.50;4966376;28;20175;-61
2023/01/24 04:38:45;;;;;;;27.55;15.13;;;;;;;0.88;68.09;103827.91;4966550;28;20022;-58
2023/01/24 04:41:13;;;;;;;28.42;14.13;;;;;;;0.85;68.26;103833.00;4969580;28;20397;-57
2023/01/24 04:43:40;;;;;;;30.65;14.07;;;;;;;0.86;68.13;103826.97;4970432;28;20925;-62
2023/01/24 04:46:06;;;;;;;30.58;14.82;;;;;;;0.88;68.29;103827.06;4965125;28;20449;-58
2023/01/24 04:48:32;;;;;;;59.13;25.73;;;;;;;0.89;68.12;103827.09;4968364;28;20026;-61
2023/01/24 04:50:59;;;;;;;30.63;16.05;;;;;;;0.87;68.32;103825.28;4968141;28;20041;-60
2023/01/24 04:53:25;;;;;;;37.20;18.45;;;;;;;0.91;68.46;103817.66;4967763;28;20045;-59
2023/01/24 04:55:50;;;;;;;32.58;16.38;;;;;;;0.91;68.40;103815.06;4969641;28;20031;-61
2023/01/24 04:58:16;;;;;;;27.88;14.18;;;;;;;0.91;68.71;103806.38;4965825;28;20035;-61
2023/01/24 05:00:41;;;;;;;27.30;14.98;;;;;;;0.94;68.14;103814.25;4964653;28;20034;-61
2023/01/24 05:03:07;;;;;;;26.98;14.45;;;;;;;0.94;68.12;103818.59;4967199;28;20062;-61
2023/01/24 05:05:32;;;;;;;30.85;14.32;;;;;;;0.95;68.76;103809.97;4968642;28;20018;-59
2023/01/24 05:07:58;;;;;;;29.35;15.18;;;;;;;0.91;68.40;103812.47;4970940;28;20034;-62
2023/01/24 05:10:24;;;;;;;29.13;14.15;;;;;;;0.93;68.40;103819.41;4963022;28;20047;-59
2023/01/24 05:12:49;;;;;;;31.48;16.80;;;;;;;0.94;68.71;103816.00;4970175;28;20065;-61
2023/01/24 05:15:15;;;;;;;30.60;16.92;;;;;;;0.94;68.44;103818.59;4967165;28;20450;-58
2023/01/24 05:17:43;;;;;;;30.67;16.20;;;;;;;0.90;68.30;103815.88;4970850;28;20034;-59
2023/01/24 05:20:10;;;;;;;30.95;13.43;;;;;;;0.88;68.73;103812.34;4968708;28;20039;-59
2023/01/24 05:22:36;;;;;;;37.13;16.45;;;;;;;0.86;68.44;103814.00;4970297;28;20062;-62
2023/01/24 05:25:01;;;;;;;30.58;14.45;;;;;;;0.87;68.70;103827.88;4969433;28;20526;-58
2023/01/24 05:27:27;;;;;;;30.50;14.90;;;;;;;0.87;68.49;103825.28;4967372;28;20479;-61
2023/01/24 05:29:52;;;;;;;39.80;16.98;;;;;;;0.88;68.85;103832.22;4963197;28;20029;-58
2023/01/24 05:32:17;;;;;;;40.88;16.23;;;;;;;0.87;68.54;103826.16;4953022;28;20046;-60
2023/01/24 05:34:43;;;;;;;30.60;14.98;;;;;;;0.85;68.54;103827.81;4964702;28;20037;-63
2023/01/24 05:37:08;;;;;;;37.85;17.83;;;;;;;0.88;68.82;103822.72;4964608;28;20045;-62
2023/01/24 05:39:34;;;;;;;41.88;17.58;;;;;;;0.89;69.17;103829.69;4950453;28;20045;-57
2023/01/24 05:41:59;;;;;;;41.53;16.50;;;;;;;0.91;68.70;103822.84;4959640;28;20047;-59
2023/01/24 05:44:25;;;;;;;42.47;16.67;;;;;;;0.90;68.47;103834.03;4963719;28;20067;-59
2023/01/24 05:46:50;;;;;;;36.40;16.67;;;;;;;0.89;68.62;103839.19;4965944;28;20030;-60
2023/01/24 05:49:16;;;;;;;43.03;17.73;;;;;;;0.88;68.94;103848.66;4965907;28;20049;-62
2023/01/24 05:51:41;;;;;;;42.90;16.98;;;;;;;0.90;69.02;103843.53;4963033;28;20034;-61
2023/01/24 05:54:06;;;;;;;48.78;18.33;;;;;;;0.87;68.83;103846.91;4963208;28;20058;-62
2023/01/24 05:56:32;;;;;;;58.88;20.30;;;;;;;0.83;68.93;103839.84;4963767;28;20919;-62
2023/01/24 05:58:58;;;;;;;48.25;17.60;;;;;;;0.80;68.97;103844.94;4963902;28;20121;-57
2023/01/24 06:01:23;;;;;;;49.78;19.00;;;;;;;0.73;68.85;103848.16;4964914;28;20515;-63
2023/01/24 06:03:51;;;;;;;56.05;18.98;;;;;;;0.74;68.94;103839.53;4958349;28;20089;-59
2023/01/24 06:06:19;;;;;;;52.13;19.77;;;;;;;0.78;68.52;103841.41;4966270;28;20035;-61
2023/01/24 06:08:45;;;;;;;56.38;18.58;;;;;;;0.78;68.63;103846.59;4965236;28;20100;-57
2023/01/24 06:11:19;;;;;;;59.83;20.85;;;;;;;0.74;68.49;103853.41;4965167;28;20541;-58
2023/01/24 06:13:45;;;;;;;43.83;13.13;;;;;;;0.71;68.41;103857.56;4967148;28;20034;-57
2023/01/24 06:16:14;;;;;;;69.55;23.50;;;;;;;0.74;69.07;103860.28;4968688;28;20034;-57
2023/01/24 06:18:40;;;;;;;70.95;20.30;;;;;;;0.73;68.50;103863.69;4963900;28;20427;-59
2023/01/24 06:21:15;;;;;;;61.38;22.35;;;;;;;0.71;68.14;103860.16;4971631;28;20552;-57
2023/01/24 06:23:41;;;;;;;73.53;24.10;;;;;;;0.68;68.20;103862.69;4962663;28;20077;-59
2023/01/24 06:26:09;;;;;;;66.82;20.73;;;;;;;0.67;68.41;103850.56;4969599;28;20026;-59
2023/01/24 06:28:35;;;;;;;73.28;23.10;;;;;;;0.65;68.43;103865.16;4969938;28;20066;-58
2023/01/24 06:31:08;;;;;;;78.72;23.15;;;;;;;0.63;68.49;103872.88;4971744;28;20070;-59
2023/01/24 06:33:43;;;;;;;79.50;22.98;;;;;;;0.65;68.09;103878.13;4970848;28;20026;-60
2023/01/24 06:36:41;;;;;;;68.30;21.80;;;;;;;0.57;67.61;103873.53;4967864;28;20118;-58
2023/01/24 06:39:14;;;;;;;76.75;23.55;;;;;;;0.57;68.63;103883.91;4967635;28;20034;-60
2023/01/24 06:41:40;;;;;;;85.38;25.50;;;;;;;0.58;68.19;103890.84;4966634;28;20043;-58
2023/01/24 06:44:07;;;;;;;74.90;22.67;;;;;;;0.65;68.47;103891.94;4966720;28;20045;-59
2023/01/24 06:46:32;;;;;;;82.50;22.35;;;;;;;0.60;67.83;103899.56;4966483;28;20042;-57
2023/01/24 06:48:58;;;;;;;85.30;26.17;;;;;;;0.60;68.00;103885.75;4968240;28;20031;-60
2023/01/24 06:51:23;;;;;;;89.18;24.70;;;;;;;0.65;68.37;103888.50;4965815;28;20033;-60
2023/01/24 06:53:48;;;;;;;84.72;23.50;;;;;;;0.64;68.45;103891.91;4965898;28;20109;-60
2023/01/24 06:56:14;;;;;;;83.20;25.13;;;;;;;0.61;68.22;103895.25;4968585;28;20086;-59
2023/01/24 06:58:39;;;;;;;78.75;23.55;;;;;;;0.60;68.05;103893.53;4967220;28;20102;-60
2023/01/24 07:01:05;;;;;;;78.10;25.67;;;;;;;0.61;68.47;103895.25;4968063;28;20035;-57
2023/01/24 07:03:30;;;;;;;90.13;24.67;;;;;;;0.60;67.98;103889.22;4967918;28;20033;-60
2023/01/24 07:05:56;;;;;;;74.80;24.25;;;;;;;0.63;68.28;103887.56;4967084;28;20034;-60
2023/01/24 07:08:21;;;;;;;98.32;26.95;;;;;;;0.66;68.45;103908.41;4967447;28;20434;-63
2023/01/24 07:10:47;;;;;;;87.10;25.88;;;;;;;0.69;68.61;103909.38;4970013;28;20027;-60
2023/01/24 07:13:12;;;;;;;93.15;25.02;;;;;;;0.72;68.19;103899.13;4968749;28;20538;-59
2023/01/24 07:15:38;;;;;;;89.30;26.92;;;;;;;0.75;68.47;103903.53;4968472;28;20031;-59
2023/01/24 07:18:08;;;;;;;91.20;25.35;;;;;;;0.79;68.54;103905.41;4971053;28;20031;-58
2023/01/24 07:20:34;;;;;;;94.88;27.48;;;;;;;0.80;68.29;103917.53;4963343;28;20031;-61
2023/01/24 07:23:00;;;;;;;95.60;24.48;;;;;;;0.79;68.02;103926.13;4968656;28;20050;-61
2023/01/24 07:25:26;;;;;;;86.43;24.55;;;;;;;0.79;67.87;103915.78;4971360;28;20026;-62
2023/01/24 07:27:52;;;;;;;83.30;24.45;;;;;;;0.83;68.47;103922.78;4972636;28;20686;-59
2023/01/24 07:30:18;;;;;;;84.30;23.90;;;;;;;0.87;68.27;103916.03;4973880;28;20554;-61
2023/01/24 07:32:43;;;;;;;65.80;18.75;;;;;;;0.88;68.42;103920.38;4971488;28;20050;-60
2023/01/24 07:35:09;;;;;;;108.50;26.58;;;;;;;0.87;68.28;103922.09;4969069;28;20641;-60
2023/01/24 07:37:35;;;;;;;96.47;25.35;;;;;;;0.91;68.32;103925.66;4967542;28;20067;-60
2023/01/24 07:40:00;;;;;;;93.57;26.23;;;;;;;0.97;68.46;103925.88;4971005;28;20034;-61
2023/01/24 07:42:26;;;;;;;93.20;24.77;;;;;;;1.02;68.43;103920.84;4968358;28;20090;-61
2023/01/24 07:44:53;;;;;;;90.57;22.58;;;;;;;1.06;68.38;103927.91;4967129;28;20038;-59
2023/01/24 07:47:19;;;;;;;95.07;26.52;;;;;;;1.04;67.97;103927.84;4969839;28;20035;-60
2023/01/24 07:49:44;;;;;;;86.95;26.00;;;;;;;1.02;68.01;103916.53;4967082;28;20045;-61
2023/01/24 07:52:10;;;;;;;100.72;25.98;;;;;;;1.06;68.48;103922.72;4962503;28;20121;-59
2023/01/24 07:54:35;;;;;;;93.57;23.27;;;;;;;1.12;68.10;103929.81;4963834;28;20031;-59
2023/01/24 07:57:01;;;;;;;81.88;22.52;;;;;;;1.13;67.82;103922.09;4968669;28;20594;-61
2023/01/24 07:59:26;;;;;;;95.07;25.88;;;;;;;1.19;68.14;103934.38;4969959;28;20030;-62
2023/01/24 08:01:52;;;;;;;80.60;23.15;;;;;;;1.21;67.82;103927.53;4972970;28;20026;-61
2023/01/24 08:04:17;;;;;;;76.32;24.50;;;;;;;1.23;68.06;103927.56;4967942;28;20039;-60
2023/01/24 08:07:16;;;;;;;81.18;26.15;;;;;;;1.26;67.63;103933.75;4967858;28;20026;-58
2023/01/24 08:09:28;;;;;;;87.88;22.42;;;;;;;1.30;67.23;103920.03;4967023;28;20038;-58
2023/01/24 08:11:54;;;;;;;74.63;21.90;;;;;;;1.31;67.43;103921.81;4966292;28;20058;-59
2023/01/24 08:14:21;;;;;;;78.85;21.95;;;;;;;1.31;67.00;103926.09;4967425;28;20108;-59
2023/01/24 08:16:48;;;;;;;88.28;24.88;;;;;;;1.32;67.08;103930.47;4962980;28;20042;-60
2023/01/24 08:19:13;;;;;;;73.50;20.58;;;;;;;1.33;67.13;103932.22;4964502;28;20022;-60
2023/01/24 08:21:39;;;;;;;81.50;25.17;;;;;;;1.35;67.26;103933.16;4969467;28;20042;-58
2023/01/24 08:24:05;;;;;;;92.85;25.10;;;;;;;1.39;67.08;103934.13;4970838;28;20081;-59
2023/01/24 08:26:30;;;;;;;72.78;21.35;;;;;;;1.40;66.80;103936.78;4971394;28;20478;-59
2023/01/24 08:28:55;;;;;;;81.80;22.58;;;;;;;1.44;66.83;103941.22;4965527;28;20413;-58
2023/01/24 08:31:21;;;;;;;76.25;22.92;;;;;;;1.48;66.87;103945.69;4968726;28;20046;-57
2023/01/24 08:33:46;;;;;;;76.82;22.42;;;;;;;1.49;66.64;103942.25;4967383;28;20027;-58
2023/01/24 08:36:12;;;;;;;75.15;24.67;;;;;;;1.51;67.02;103950.13;4969725;28;20491;-59
2023/01/24 08:38:37;;;;;;;66.28;20.50;;;;;;;1.56;66.79;103955.44;4966352;28;20063;-61
2023/01/24 08:41:04;;;;;;;69.32;22.55;;;;;;;1.52;66.71;103947.56;4963251;28;20043;-60
2023/01/24 08:43:30;;;;;;;67.00;21.25;;;;;;;1.57;66.63;103954.63;4966396;28;20034;-61
2023/01/24 08:45:55;;;;;;;60.58;20.02;;;;;;;1.57;66.55;103944.25;4967292;28;20031;-60
2023/01/24 08:48:21;;;;;;;73.20;22.17;;;;;;;1.58;66.58;103951.19;4964171;28;20045;-59
2023/01/24 08:50:46;;;;;;;69.75;20.25;;;;;;;1.58;66.43;103948.59;4965398;28;20041;-61
2023/01/24 08:53:12;;;;;;;63.15;20.02;;;;;;;1.57;66.30;103950.28;4969264;28;20033;-56
2023/01/24 08:55:37;;;;;;;72.60;19.35;;;;;;;1.55;66.58;103945.91;4964486;28;20030;-58
2023/01/24 08:58:04;;;;;;;70.72;20.75;;;;;;;1.56;66.61;103939.88;4971942;28;20035;-59
2023/01/24 09:00:30;;;;;;;78.75;22.23;;;;;;;1.55;66.44;103949.34;4968045;28;20498;-55
2023/01/24 09:03:00;;;;;;;63.78;19.20;;;;;;;1.56;66.44;103947.66;4970543;28;20039;-55
2023/01/24 09:05:26;;;;;;;57.95;18.67;;;;;;;1.61;66.48;103956.47;4965475;28;20434;-55
2023/01/24 09:07:52;;;;;;;37.00;13.10;;;;;;;1.65;66.91;103963.53;4965585;28;20430;-61
2023/01/24 09:10:17;;;;;;;67.57;19.92;;;;;;;1.71;66.96;103955.03;4967051;28;20046;-60
2023/01/24 09:12:43;;;;;;;62.47;20.25;;;;;;;1.73;66.62;103949.09;4959232;28;20153;-59
2023/01/24 09:15:08;;;;;;;55.33;18.88;;;;;;;1.73;66.56;103950.78;4965059;28;20026;-58
2023/01/24 09:17:34;;;;;;;61.55;20.30;;;;;;;1.71;66.33;103955.94;4959988;28;20050;-55
2023/01/24 09:20:00;;;;;;;74.82;21.13;;;;;;;1.69;66.28;103952.41;4959526;28;20031;-60
2023/01/24 09:22:26;;;;;;;67.50;20.27;;;;;;;1.73;66.32;103951.69;4965194;28;20034;-58
2023/01/24 09:24:52;;;;;;;78.00;22.75;;;;;;;1.77;66.47;103948.31;4967738;28;20041;-59
2023/01/24 09:27:17;;;;;;;72.45;20.40;;;;;;;1.81;66.42;103945.00;4967889;28;20047;-55
2023/01/24 09:29:43;;;;;;;84.90;27.27;;;;;;;1.83;66.05;103940.72;4968357;28;20033;-59
2023/01/24 09:32:08;;;;;;;71.28;22.45;;;;;;;1.89;66.22;103936.56;4968598;28;20031;-58
2023/01/24 09:34:33;;;;;;;69.88;21.15;;;;;;;1.95;65.91;103929.84;4962968;28;20032;-60
2023/01/24 09:36:59;;;;;;;61.35;20.75;;;;;;;2.04;65.79;103934.38;4961916;28;20026;-61
2023/01/24 09:39:25;;;;;;;66.65;20.30;;;;;;;2.07;65.61;103937.09;4964060;28;20045;-59
2023/01/24 09:41:53;;;;;;;54.63;17.85;;;;;;;2.08;65.57;103933.66;4968659;28;20027;-61
2023/01/24 09:44:27;;;;;;;55.25;17.45;;;;;;;2.07;65.14;103939.69;4968479;28;20035;-60
2023/01/24 09:46:54;;;;;;;62.97;21.63;;;;;;;2.10;65.33;103939.78;4963105;28;20591;-59
2023/01/24 09:49:30;;;;;;;64.38;20.17;;;;;;;2.10;65.27;103942.38;4966614;28;20045;-56
2023/01/24 09:51:55;;;;;;;60.55;16.55;;;;;;;2.16;65.75;103944.28;4963136;28;20202;-57
2023/01/24 09:54:34;;;;;;;55.28;18.67;;;;;;;2.14;64.70;103948.53;4968247;28;20475;-61
2023/01/24 09:57:00;;;;;;;40.50;12.57;;;;;;;2.15;65.21;103957.22;4961893;28;20431;-56
2023/01/24 09:59:35;;;;;;;61.00;17.80;;;;;;;2.17;65.24;103958.16;4958351;28;20118;-56
2023/01/24 10:02:02;;;;;;;54.40;18.33;;;;;;;2.21;65.60;103960.00;4963102;28;20074;-62
2023/01/24 10:04:36;;;;;;;56.30;18.10;;;;;;;2.23;65.37;103958.31;4967032;28;20031;-56
2023/01/24 10:07:20;;;;;;;50.58;19.73;;;;;;;2.22;65.45;103954.84;4966371;28;20031;-56
2023/01/24 10:10:10;;;;;;;56.35;17.63;;;;;;;2.24;65.25;103955.78;4963790;28;20037;-58
2023/01/24 10:12:45;;;;;;;52.05;19.40;;;;;;;2.26;65.37;103953.22;4963931;28;20378;-55
2023/01/24 10:15:38;;;;;;;42.72;16.60;;;;;;;2.27;64.95;103949.78;4968667;28;20031;-63
2023/01/24 10:18:22;;;;;;;48.08;16.75;;;;;;;2.30;65.24;103942.09;4968248;28;20102;-59
2023/01/24 10:21:11;;;;;;;41.40;14.52;;;;;;;2.25;64.94;103946.25;4965754;28;20532;-60
2023/01/24 10:23:43;;;;;;;43.20;15.50;;;;;;;2.21;65.14;103940.09;4962748;28;20047;-58
2023/01/24 10:26:11;;;;;;;40.67;14.82;;;;;;;2.16;64.93;103946.00;4966245;28;20037;-58
2023/01/24 10:28:43;;;;;;;44.80;14.63;;;;;;;2.12;65.11;103951.09;4965099;28;20058;-55
2023/01/24 10:31:16;;;;;;;46.08;16.58;;;;;;;2.09;65.33;103945.81;4963754;28;20055;-62
2023/01/24 10:33:47;;;;;;;43.90;15.63;;;;;;;2.09;65.48;103945.81;4964349;28;20030;-61
2023/01/24 10:36:22;;;;;;;37.05;16.25;;;;;;;2.08;65.20;103941.44;4955775;28;21399;-60
2023/01/24 10:38:48;;;;;;;51.75;18.15;;;;;;;2.08;65.19;103940.59;4960149;28;20065;-61
2023/01/24 10:41:25;;;;;;;37.05;14.68;;;;;;;2.03;64.38;103932.66;4964948;28;20062;-59
2023/01/24 10:44:16;;;;;;;37.78;12.85;;;;;;;2.14;65.18;103932.94;4962893;28;20426;-57
2023/01/24 10:47:11;;;;;;;37.15;12.52;;;;;;;2.17;65.14;103934.78;4965884;28;20018;-64
2023/01/24 10:49:41;;;;;;;23.35;8.55;;;;;;;2.08;64.95;103928.47;4959025;28;20877;-61
2023/01/24 10:52:17;;;;;;;41.13;14.95;;;;;;;2.06;64.84;103924.06;4967773;28;20030;-61
2023/01/24 10:54:48;;;;;;;31.23;13.32;;;;;;;2.11;64.78;103918.16;4966260;28;20031;-61
2023/01/24 10:57:38;;;;;;;29.20;12.63;;;;;;;2.13;64.64;103913.91;4964024;28;20182;-57
2023/01/24 11:00:25;;;;;;;33.00;12.15;;;;;;;2.18;64.58;103923.56;4958171;28;20046;-57
2023/01/24 11:02:53;;;;;;;44.28;13.57;;;;;;;2.27;64.89;103918.59;4972023;28;20022;-57
2023/01/24 11:05:20;;;;;;;33.25;13.25;;;;;;;2.29;64.60;103910.00;4970282;28;20042;-62
2023/01/24 11:08:14;;;;;;;28.95;12.00;;;;;;;2.29;64.43;103916.94;4970612;28;20038;-56
2023/01/24 11:10:41;;;;;;;35.85;13.20;;;;;;;2.34;64.69;103920.56;4974755;28;20030;-61
2023/01/24 11:13:28;;;;;;;28.77;12.50;;;;;;;2.34;64.33;103910.16;4973567;28;20537;-62
2023/01/24 11:16:01;;;;;;;21.48;10.02;;;;;;;2.43;64.57;103906.91;4974127;28;20035;-58
2023/01/24 11:18:28;;;;;;;23.98;9.30;;;;;;;2.44;64.18;103906.06;4974941;28;20171;-59
2023/01/24 11:21:08;;;;;;;27.60;11.15;;;;;;;2.44;64.32;103906.97;4966833;28;20095;-58
2023/01/24 11:23:33;;;;;;;27.10;11.13;;;;;;;2.46;64.29;103900.94;4970117;28;20041;-60
2023/01/24 11:26:01;;;;;;;30.67;11.57;;;;;;;2.43;64.34;103907.78;4972941;28;20035;-58
2023/01/24 11:28:29;;;;;;;28.58;12.13;;;;;;;2.39;64.10;103898.16;4969828;28;20093;-56
2023/01/24 11:30:58;;;;;;;36.83;15.70;;;;;;;2.41;64.57;103896.47;4966343;28;20464;-56
2023/01/24 11:33:39;;;;;;;37.53;15.40;;;;;;;2.40;64.07;103894.72;4972227;28;20081;-60
2023/01/24 11:36:21;;;;;;;40.15;14.15;;;;;;;2.45;64.11;103892.22;4967545;28;20030;-56
2023/01/24 11:38:49;;;;;;;29.83;11.82;;;;;;;2.48;64.26;103886.25;4967237;28;20034;-55
2023/01/24 11:41:20;;;;;;;27.15;13.23;;;;;;;2.51;64.46;103886.31;4967089;28;20066;-59
2023/01/24 11:44:07;;;;;;;40.70;13.13;;;;;;;2.56;64.05;103879.53;4971355;28;20585;-55
2023/01/24 11:47:00;;;;;;;28.33;11.70;;;;;;;2.51;64.04;103888.91;4972483;28;20455;-57
2023/01/24 11:49:25;;;;;;;33.10;12.00;;;;;;;2.47;63.95;103889.69;4969354;28;20035;-59
2023/01/24 11:51:57;;;;;;;30.33;11.07;;;;;;;2.48;64.35;103891.44;4969668;28;20047;-63
2023/01/24 11:54:35;;;;;;;29.90;10.75;;;;;;;2.50;64.52;103881.94;4963810;28;20027;-62
2023/01/24 11:57:37;;;;;;;29.67;11.07;;;;;;;2.47;63.59;103884.50;4969607;28;20133;-59
2023/01/24 12:00:16;;;;;;;32.72;11.30;;;;;;;2.48;63.88;103894.06;4967396;28;20046;-57
2023/01/24 12:03:06;;;;;;;31.83;12.27;;;;;;;2.46;63.92;103894.00;4968137;28;20050;-59
2023/01/24 12:05:46;;;;;;;32.20;10.68;;;;;;;2.48;63.77;103889.72;4972677;28;20037;-56